Aérodrome :
LOGIN :

S'inscrire | Disclaimer

   EN    FR    IT 

 










Légende :    VFR   VFR Marginal   IFR   IFR Intensif   IFR Très Intensif
Visi : 
Plafond : 
>= 8 km
>= 3000ft
5 à 8 km
1000 à 3000 ft
1500m à 5 km
500 à 1000 ft
800 à 1500m
200 à 500 ft
< 800m
< 200 ft
Symboles :   Orages  Brouillard  Fortes neiges  Fortes précipitations  Vent > 20 kt
SIGMETs :   Divers  Orages  Givrage  Turbulence  Onde Orograph.  Cendres Volcan.







- Altitude de l'aérodrome : 157 ft
- Code IATA : LIL
- Voir les cartes d'approche


LFQQ - Lille Lesquin

DERNIER METAR :
  • 241700Z AUTO 01010KT CAVOK 23/11 Q1024 BECMG 30005KT

METARs EXPIRÉS :
  • 241630Z AUTO 34010KT 310V010 CAVOK 23/11 Q1024 NOSIG
  • 241600Z AUTO 34010KT CAVOK 24/12 Q1024 NOSIG
  • 241530Z AUTO 36010KT 330V030 CAVOK 24/12 Q1024 NOSIG
  • 241500Z AUTO 34010KT CAVOK 24/12 Q1024 NOSIG
  • 241430Z AUTO 34007KT 310V020 9999 BKN048 BKN054 24/13 Q1024 NOSIG

TAF TAF LFQQ
Valide du 24 à 18h jusqu'au 26 à 00h UTC


241700Z 2418/2524 36008KT CAVOK
ATIS : +33 3 20 16 19 54
Pas de NOTAMs connus pour ce terrain.



MET'MAP, la Météo Aéronautique d'un coup d'oeil ! - Copyright ORBIFLY Décembre 2007 - Disclaimer

ORBIFLY MET'MAP TEAM :

Programmation & Développement : Alexandra Zaïnal
Conception & Développement : Baudouin d'Aumeries
Co-Programmation & Développement : Marc-Olivier Méhu
Soutien technique & logistique : Manuel Goepfert

Contact : metmap@orbifly.com




SOURCES & CREDITS :

   NOAA